Rapid City, SD (57701)

3:03 AM MDT on May 27, 2017 (GMT -0600)
Robinsdale | | Change Station

Elev 3290 ft 44.05 °N, 103.21 °W | Updated 7 seconds ago

Rain
Rain
49.8 °F
Feels Like 50 °F
N
1.8
Wind Variable Wind from WNW
Gusts 5.6 mph

Today
High -- | Low -- °F
--% Chance of Precip.
Yesterday
High -- | Low -- °F
Precip. -- in
Pressure 29.95 in
Visibility 10.0 miles
Clouds Mostly Cloudy 8000 ft
Mostly Cloudy 10000 ft
Overcast 12000 ft
Windchill 50 °F
Dew Point 46 °F
Humidity 87%
Rainfall 0.00 in
Snow Depth Not available.
5:15 AM 8:24 PM
Waxing Crescent, 4% visible
METAR KRAP 270852Z AUTO 29006KT 10SM BKN080 BKN100 OVC120 10/08 A2997 RMK AO2 SLP141 60000 T01000078 56011
Pressure 29.95 in
Visibility 10.0 miles
Clouds Mostly Cloudy 8000 ft
Mostly Cloudy 10000 ft
Overcast 12000 ft
Windchill 50 °F
Dew Point 46 °F
Humidity 87%
Rainfall 0.00 in
Snow Depth Not available.
5:15 AM 8:24 PM
Waxing Crescent, 4% visible
METAR KRAP 270852Z AUTO 29006KT 10SM BKN080 BKN100 OVC120 10/08 A2997 RMK AO2 SLP141 60000 T01000078 56011

Get Severe Weather Alerts

Thanks for signing up!

Be on the lookout for a verification email in your inbox.

You'll start receiving the daily forecast at 6 AM.

×

10-Day Weather Forecast

Almanac

Astronomy

May. 27, 2017 Rise Set
Actual Time
Civil Twilight
Nautical Twilight
Astronomical Twilight
Moon
Length of Visible Light
Length of Day
Tomorrow will be .
, % of the Moon is Illuminated

Today's Extremes

State Highs State Lows

Community

WunderPhotos

Category 6

Welcome to Category 6. This is the collective home for Weather Underground's featured writeups by Dr. Jeff Masters (right), Bob Henson (left), Chris Burt, and other regular contributors.

Nearby

Air Quality

  Air Quality AQ Index Pollutant
Not available.

Snow Depth

Station Depth Elevation

Earthquake Activity

City Distance Mag. Time & Date
Minimum magnitude displayed is 2.5.

Coastal Water Temperatures

Place Temperature

Stations

Nearby Weather Stations

Station Location Temp. Windchill Dew Point Humidity Wind Precip. Elev Updated Type
                   

Watches & Warnings

There are currently no watches in effect.